Time;durP1;ratioP1;P1;durP2;ratioP2;P2;SDS_P1;SDS_P2;PMS_P1;PMS_P2;Temp;Humidity;BMP_temperature;BMP_pressure;BME280_temperature;BME280_humidity;BME280_pressure;Samples;Min_cycle;Max_cycle;Signal;HPM_P1;HPM_P2
2021/05/09 00:01:55;;;;;;;9.88;9.07;;;11.00;99.90;;;;;;5051892;28;20133;-70
2021/05/09 00:04:23;;;;;;;10.27;9.48;;;10.90;99.90;;;;;;5051949;28;20040;-70
2021/05/09 00:06:50;;;;;;;9.80;8.98;;;10.90;99.90;;;;;;5051839;28;20049;-70
2021/05/09 00:09:18;;;;;;;10.13;9.35;;;10.80;99.90;;;;;;5050596;28;20049;-70
2021/05/09 00:11:45;;;;;;;9.63;8.82;;;10.80;99.90;;;;;;5049777;28;20080;-69
2021/05/09 00:14:12;;;;;;;10.20;9.48;;;10.80;99.90;;;;;;5050147;28;20060;-69
2021/05/09 00:16:39;;;;;;;9.82;9.13;;;10.80;99.90;;;;;;5049323;28;20056;-69
2021/05/09 00:19:06;;;;;;;9.98;9.27;;;10.80;99.90;;;;;;5034554;28;20428;-69
2021/05/09 00:21:34;;;;;;;9.50;8.80;;;10.80;99.90;;;;;;5050006;28;20734;-69
2021/05/09 00:24:01;;;;;;;9.98;9.15;;;10.80;99.90;;;;;;5050350;28;20040;-69
2021/05/09 00:26:28;;;;;;;10.32;9.52;;;10.80;99.90;;;;;;5049913;28;20123;-69
2021/05/09 00:29:10;;;;;;;9.55;8.77;;;10.70;99.90;;;;;;5049758;28;20060;-69
2021/05/09 00:31:37;;;;;;;9.60;8.80;;;10.70;99.90;;;;;;5050994;28;20154;-69
2021/05/09 00:34:04;;;;;;;9.10;8.40;;;10.70;99.90;;;;;;5033401;28;20099;-70
2021/05/09 00:36:31;;;;;;;10.35;9.45;;;10.70;99.90;;;;;;5050180;28;20056;-69
2021/05/09 00:38:57;;;;;;;9.65;8.85;;;10.70;99.90;;;;;;5051628;28;20048;-69
2021/05/09 00:41:24;;;;;;;11.82;10.73;;;10.60;99.90;;;;;;5051751;28;20037;-69
2021/05/09 00:43:51;;;;;;;12.18;11.05;;;10.60;99.90;;;;;;5033107;28;20049;-70
2021/05/09 00:46:18;;;;;;;10.25;9.30;;;10.60;99.90;;;;;;5050254;28;20543;-70
2021/05/09 00:48:46;;;;;;;9.98;9.18;;;10.60;99.90;;;;;;5051817;28;20041;-69
2021/05/09 00:51:14;;;;;;;10.23;9.32;;;10.60;99.90;;;;;;5033476;28;20045;-70
2021/05/09 00:53:44;;;;;;;9.73;8.90;;;10.50;99.90;;;;;;5049507;28;20049;-70
2021/05/09 00:56:13;;;;;;;9.80;8.90;;;10.50;99.90;;;;;;5032870;28;20130;-70
2021/05/09 00:58:43;;;;;;;9.90;9.10;;;10.50;99.90;;;;;;5047534;28;21549;-70
2021/05/09 01:01:12;;;;;;;9.55;8.80;;;10.50;99.90;;;;;;5049845;28;20063;-70
2021/05/09 01:03:42;;;;;;;9.20;8.50;;;10.40;99.90;;;;;;5048416;28;20371;-69
2021/05/09 01:06:10;;;;;;;9.63;8.93;;;10.40;99.90;;;;;;5050612;28;20048;-70
2021/05/09 01:08:37;;;;;;;9.23;8.52;;;10.40;99.90;;;;;;5049571;28;20066;-70
2021/05/09 01:11:06;;;;;;;9.40;8.68;;;10.40;99.90;;;;;;5050006;28;21011;-70
2021/05/09 01:13:33;;;;;;;10.25;9.10;;;10.30;99.90;;;;;;5031002;28;20053;-70
2021/05/09 01:16:00;;;;;;;9.88;9.07;;;10.30;99.90;;;;;;5047435;28;20071;-70
2021/05/09 01:18:29;;;;;;;9.30;8.50;;;10.30;99.90;;;;;;5033008;28;20057;-70
2021/05/09 01:20:57;;;;;;;9.20;8.50;;;10.20;99.90;;;;;;5047179;28;20041;-70
2021/05/09 01:23:24;;;;;;;9.40;8.70;;;10.20;99.90;;;;;;5030896;28;20049;-70
2021/05/09 01:25:52;;;;;;;9.95;8.75;;;10.20;99.90;;;;;;5049259;28;20045;-70
2021/05/09 01:28:20;;;;;;;9.40;8.70;;;10.10;99.90;;;;;;5047168;28;20045;-70
2021/05/09 01:30:47;;;;;;;9.77;8.80;;;10.10;99.90;;;;;;5032422;28;20139;-70
2021/05/09 01:33:13;;;;;;;8.82;8.13;;;10.10;99.90;;;;;;5049877;28;20064;-69
2021/05/09 01:35:41;;;;;;;9.35;8.65;;;10.00;99.90;;;;;;5049679;28;20473;-69
2021/05/09 01:38:08;;;;;;;9.20;8.50;;;10.00;99.90;;;;;;5047617;28;20099;-70
2021/05/09 01:40:35;;;;;;;9.45;8.68;;;10.00;99.90;;;;;;5051451;28;20053;-69
2021/05/09 01:43:02;;;;;;;9.38;8.60;;;9.90;99.90;;;;;;5047019;28;20041;-69
2021/05/09 01:45:29;;;;;;;9.30;8.52;;;9.90;99.90;;;;;;5051284;28;20128;-70
2021/05/09 01:47:56;;;;;;;9.32;8.32;;;9.90;99.90;;;;;;5049079;28;20052;-70
2021/05/09 01:50:23;;;;;;;8.65;8.05;;;9.90;99.90;;;;;;5032410;28;20668;-70
2021/05/09 01:52:51;;;;;;;8.90;8.10;;;9.90;99.90;;;;;;5049299;28;20132;-70
2021/05/09 01:55:24;;;;;;;9.50;8.70;;;9.90;99.90;;;;;;5047891;28;20052;-69
2021/05/09 01:58:02;;;;;;;9.10;8.05;;;10.00;99.90;;;;;;5060539;28;20058;-69
2021/05/09 02:00:43;;;;;;;9.02;8.30;;;9.90;99.90;;;;;;5048264;28;20049;-69
2021/05/09 02:03:18;;;;;;;8.95;8.25;;;9.90;99.90;;;;;;5046972;28;20123;-69
2021/05/09 02:05:45;;;;;;;9.32;8.52;;;9.80;99.90;;;;;;5046368;28;20037;-69
2021/05/09 02:08:14;;;;;;;8.90;8.00;;;9.80;99.90;;;;;;5048480;28;20049;-69
2021/05/09 02:10:47;;;;;;;9.20;8.40;;;9.80;99.90;;;;;;5046741;28;20049;-70
2021/05/09 02:13:14;;;;;;;9.70;8.70;;;9.80;99.90;;;;;;5048492;28;20049;-70
2021/05/09 02:15:53;;;;;;;9.15;8.25;;;9.80;99.90;;;;;;5047430;28;20077;-70
2021/05/09 02:18:20;;;;;;;8.98;8.18;;;9.80;99.90;;;;;;5047334;28;20044;-70
2021/05/09 02:20:49;;;;;;;9.63;8.15;;;9.80;99.90;;;;;;5029906;28;20041;-70
2021/05/09 02:23:17;;;;;;;8.85;8.05;;;9.70;99.90;;;;;;5043749;28;20138;-70
2021/05/09 02:25:44;;;;;;;9.15;8.35;;;9.70;99.90;;;;;;5047937;28;20057;-70
2021/05/09 02:28:12;;;;;;;9.18;8.38;;;9.70;99.90;;;;;;5050759;28;20045;-70
2021/05/09 02:30:40;;;;;;;9.27;8.43;;;9.60;99.90;;;;;;5032665;28;20064;-70
2021/05/09 02:33:13;;;;;;;9.38;8.57;;;9.60;99.90;;;;;;5034316;28;20049;-69
2021/05/09 02:35:43;;;;;;;8.15;7.55;;;9.60;99.90;;;;;;5051447;28;20048;-69
2021/05/09 02:38:11;;;;;;;8.73;8.02;;;9.60;99.90;;;;;;5051065;28;20120;-69
2021/05/09 02:40:39;;;;;;;8.75;7.75;;;9.60;99.90;;;;;;5037999;28;20508;-69
2021/05/09 02:43:06;;;;;;;9.93;8.23;;;9.60;99.90;;;;;;5034122;28;20120;-69
2021/05/09 02:45:35;;;;;;;8.63;7.82;;;9.60;99.90;;;;;;5034125;28;20138;-69
2021/05/09 02:48:02;;;;;;;8.90;8.10;;;9.50;99.90;;;;;;5048741;28;20033;-69
2021/05/09 02:50:31;;;;;;;8.95;8.10;;;9.50;99.90;;;;;;5049343;28;20080;-69
2021/05/09 02:52:58;;;;;;;8.45;7.75;;;9.40;99.90;;;;;;5051793;28;20718;-69
2021/05/09 02:55:25;;;;;;;9.27;8.48;;;9.40;99.90;;;;;;5052078;28;20037;-70
2021/05/09 02:57:52;;;;;;;9.05;8.32;;;9.40;99.90;;;;;;5051727;28;20045;-69
2021/05/09 03:00:19;;;;;;;8.38;7.65;;;9.40;99.90;;;;;;5035183;28;20099;-70
2021/05/09 03:03:07;;;;;;;8.93;8.00;;;9.40;99.90;;;;;;5050236;28;20133;-69
2021/05/09 03:05:35;;;;;;;8.20;7.53;;;9.30;99.90;;;;;;5051653;28;20041;-68
2021/05/09 03:08:03;;;;;;;8.20;7.40;;;9.40;99.90;;;;;;5049577;28;20046;-68
2021/05/09 03:10:32;;;;;;;8.50;7.40;;;9.30;99.90;;;;;;5049350;28;20044;-69
2021/05/09 03:12:59;;;;;;;8.82;7.93;;;9.40;99.90;;;;;;5050296;28;20052;-69
2021/05/09 03:15:27;;;;;;;8.93;8.13;;;9.30;99.90;;;;;;5051542;28;20053;-69
2021/05/09 03:17:54;;;;;;;9.05;7.90;;;9.30;99.90;;;;;;5051941;28;20056;-69
2021/05/09 03:20:21;;;;;;;8.00;7.35;;;9.30;99.90;;;;;;5052284;28;20044;-69
2021/05/09 03:22:48;;;;;;;8.32;7.40;;;9.30;99.90;;;;;;5052722;28;20495;-69
2021/05/09 03:25:15;;;;;;;8.13;7.43;;;9.30;99.90;;;;;;5052236;28;20052;-69
2021/05/09 03:27:42;;;;;;;8.45;7.75;;;9.40;99.90;;;;;;5035002;28;20553;-69
2021/05/09 03:30:10;;;;;;;8.57;7.63;;;9.30;99.90;;;;;;5044805;28;20056;-69
2021/05/09 03:32:37;;;;;;;8.35;7.68;;;9.40;99.90;;;;;;5049195;28;20064;-69
2021/05/09 03:35:10;;;;;;;8.35;7.65;;;9.40;99.90;;;;;;5051835;28;20045;-69
2021/05/09 03:37:37;;;;;;;8.52;7.80;;;9.40;99.90;;;;;;5051785;28;20538;-69
2021/05/09 03:40:07;;;;;;;8.00;7.32;;;9.40;99.90;;;;;;5052478;28;20053;-69
2021/05/09 03:42:34;;;;;;;8.95;8.15;;;9.40;99.90;;;;;;5048595;28;20053;-70
2021/05/09 03:45:01;;;;;;;16.13;9.10;;;9.30;99.90;;;;;;5036721;28;20049;-68
2021/05/09 03:47:28;;;;;;;11.30;9.85;;;9.30;99.90;;;;;;5050578;28;20091;-69
2021/05/09 03:49:56;;;;;;;10.38;9.35;;;9.30;99.90;;;;;;5050709;28;20041;-70
2021/05/09 03:52:23;;;;;;;8.80;8.00;;;9.30;99.90;;;;;;5052012;28;20045;-69
2021/05/09 03:54:51;;;;;;;9.02;7.85;;;9.20;99.90;;;;;;5051251;28;20136;-69
2021/05/09 03:57:18;;;;;;;8.32;7.53;;;9.30;99.90;;;;;;5034036;28;20048;-69
2021/05/09 03:59:45;;;;;;;9.73;8.73;;;9.40;99.90;;;;;;5050303;28;20052;-70
2021/05/09 04:02:12;;;;;;;10.30;9.40;;;9.40;99.90;;;;;;5049816;28;20052;-69
2021/05/09 04:04:39;;;;;;;8.95;7.90;;;9.40;99.90;;;;;;5051059;28;20499;-69
2021/05/09 04:07:06;;;;;;;8.32;7.63;;;9.40;99.90;;;;;;5044956;28;20041;-69
2021/05/09 04:09:33;;;;;;;9.32;7.90;;;9.50;99.90;;;;;;5050004;28;20528;-69
2021/05/09 04:11:59;;;;;;;8.50;7.60;;;9.50;99.90;;;;;;5050830;28;20060;-69
2021/05/09 04:14:26;;;;;;;8.20;7.60;;;9.60;99.90;;;;;;5051072;28;20081;-69
2021/05/09 04:16:53;;;;;;;8.15;7.40;;;9.60;99.90;;;;;;5032832;28;20691;-69
2021/05/09 04:19:20;;;;;;;8.63;7.93;;;9.70;99.90;;;;;;5047894;28;20147;-69
2021/05/09 04:21:47;;;;;;;8.57;7.68;;;9.70;99.90;;;;;;5050978;28;20065;-69
2021/05/09 04:24:14;;;;;;;8.50;7.57;;;9.70;99.90;;;;;;5050732;28;20040;-69
2021/05/09 04:26:41;;;;;;;8.23;7.53;;;9.80;99.90;;;;;;5049716;28;20537;-69
2021/05/09 04:29:08;;;;;;;8.35;7.50;;;9.80;99.90;;;;;;5049783;28;20052;-69
2021/05/09 04:31:34;;;;;;;8.10;7.40;;;9.80;99.90;;;;;;5050120;28;20056;-69
2021/05/09 04:34:02;;;;;;;8.30;7.60;;;9.90;99.90;;;;;;5048240;28;20049;-69
2021/05/09 04:36:29;;;;;;;10.38;7.85;;;10.00;99.90;;;;;;5048973;28;20041;-68
2021/05/09 04:39:02;;;;;;;8.07;7.38;;;10.00;99.90;;;;;;5051750;28;20045;-69
2021/05/09 04:41:30;;;;;;;8.30;7.50;;;10.10;99.90;;;;;;5050276;28;20045;-70
2021/05/09 04:43:58;;;;;;;8.55;7.65;;;10.10;99.90;;;;;;5053259;28;20045;-69
2021/05/09 04:46:26;;;;;;;8.60;7.72;;;10.20;99.90;;;;;;5047239;28;20083;-69
2021/05/09 04:48:53;;;;;;;7.93;7.22;;;10.20;99.90;;;;;;5045207;28;20571;-70
2021/05/09 04:51:21;;;;;;;7.90;7.20;;;10.30;99.90;;;;;;5044377;28;20045;-70
2021/05/09 04:53:48;;;;;;;7.93;7.22;;;10.40;99.90;;;;;;5046232;28;20067;-69
2021/05/09 04:56:17;;;;;;;8.18;7.47;;;10.50;99.90;;;;;;5046231;28;20124;-68
2021/05/09 04:58:44;;;;;;;7.93;7.22;;;10.50;99.90;;;;;;5050068;28;20132;-69
2021/05/09 05:01:12;;;;;;;8.85;8.10;;;10.60;99.90;;;;;;5046653;28;20052;-69
2021/05/09 05:03:40;;;;;;;8.60;7.80;;;10.70;99.90;;;;;;5050663;28;20053;-69
2021/05/09 05:06:07;;;;;;;8.50;7.80;;;10.70;99.90;;;;;;5025143;28;20045;-69
2021/05/09 05:08:34;;;;;;;8.93;8.05;;;10.70;99.90;;;;;;5049263;28;20048;-70
2021/05/09 05:11:04;;;;;;;9.85;7.80;;;10.80;99.90;;;;;;5050650;28;20049;-70
2021/05/09 05:13:34;;;;;;;8.77;8.00;;;10.90;99.90;;;;;;5049233;28;20454;-69
2021/05/09 05:16:06;;;;;;;8.57;7.88;;;11.00;99.90;;;;;;5052545;28;20128;-69
2021/05/09 05:18:36;;;;;;;9.13;8.32;;;11.00;99.90;;;;;;5050539;28;20056;-70
2021/05/09 05:21:07;;;;;;;8.50;7.90;;;11.20;99.90;;;;;;5045166;28;20057;-70
2021/05/09 05:23:36;;;;;;;9.35;8.57;;;11.30;99.90;;;;;;5053364;28;20107;-69
2021/05/09 05:26:05;;;;;;;9.13;8.23;;;11.30;99.90;;;;;;5050186;28;20145;-69
2021/05/09 05:28:32;;;;;;;8.75;7.95;;;11.40;99.90;;;;;;5063998;28;20049;-69
2021/05/09 05:30:59;;;;;;;9.07;8.38;;;11.50;99.90;;;;;;5052690;28;20049;-70
2021/05/09 05:33:32;;;;;;;9.50;8.60;;;11.50;99.90;;;;;;5035205;28;20398;-70
2021/05/09 05:36:04;;;;;;;9.13;8.32;;;11.60;99.90;;;;;;5051194;28;20565;-70
2021/05/09 05:38:32;;;;;;;9.63;8.82;;;11.80;99.90;;;;;;5047586;28;20048;-70
2021/05/09 05:40:59;;;;;;;9.70;8.90;;;11.80;99.90;;;;;;5052283;28;20060;-70
2021/05/09 05:43:28;;;;;;;9.13;8.43;;;11.90;99.90;;;;;;5035613;28;20060;-70
2021/05/09 05:45:56;;;;;;;9.13;8.43;;;12.00;99.90;;;;;;5037133;28;20057;-70
2021/05/09 05:48:25;;;;;;;9.23;8.50;;;12.10;99.90;;;;;;5048849;28;20037;-70
2021/05/09 05:50:54;;;;;;;9.38;8.68;;;12.20;99.90;;;;;;5052004;28;20041;-70
2021/05/09 05:53:26;;;;;;;9.18;8.38;;;12.30;99.90;;;;;;5035447;28;20053;-70
2021/05/09 05:55:53;;;;;;;9.43;8.52;;;12.40;99.90;;;;;;5034166;28;20045;-70
2021/05/09 05:58:21;;;;;;;10.80;8.40;;;12.50;99.90;;;;;;5030090;28;20076;-69
2021/05/09 06:00:50;;;;;;;8.85;8.15;;;12.60;99.90;;;;;;5047817;28;20045;-69
2021/05/09 06:03:18;;;;;;;8.73;8.02;;;12.70;99.90;;;;;;5067112;28;20041;-69
2021/05/09 06:05:46;;;;;;;8.70;8.00;;;12.80;99.90;;;;;;5057004;28;20506;-69
2021/05/09 06:08:15;;;;;;;8.80;8.00;;;12.90;99.90;;;;;;5057859;28;20041;-70
2021/05/09 06:10:44;;;;;;;8.70;8.00;;;13.00;99.90;;;;;;5057190;28;20060;-69
2021/05/09 06:13:12;;;;;;;8.40;7.80;;;13.10;99.90;;;;;;5054097;28;20041;-69
2021/05/09 06:15:39;;;;;;;9.15;8.35;;;13.20;99.90;;;;;;5051537;28;20063;-69
2021/05/09 06:18:06;;;;;;;8.95;8.20;;;13.30;99.90;;;;;;5051646;28;20132;-68
2021/05/09 06:20:33;;;;;;;9.50;8.70;;;13.40;99.90;;;;;;5036655;28;20076;-69
2021/05/09 06:23:02;;;;;;;8.82;8.10;;;13.50;99.90;;;;;;5051304;28;20045;-69
2021/05/09 06:25:31;;;;;;;8.90;8.20;;;13.60;99.90;;;;;;5033634;28;20053;-70
2021/05/09 06:27:58;;;;;;;8.57;7.97;;;13.70;99.90;;;;;;5051303;28;20051;-70
2021/05/09 06:30:25;;;;;;;9.20;8.50;;;13.80;99.90;;;;;;5052279;28;20083;-69
2021/05/09 06:32:52;;;;;;;8.85;8.15;;;13.90;99.90;;;;;;5053729;28;20044;-69
2021/05/09 06:35:20;;;;;;;8.95;8.25;;;14.00;99.90;;;;;;5052504;28;20049;-68
2021/05/09 06:37:51;;;;;;;8.80;8.00;;;14.10;99.90;;;;;;5052685;28;20141;-69
2021/05/09 06:40:23;;;;;;;9.52;8.73;;;14.20;99.90;;;;;;5049211;28;20071;-70
2021/05/09 06:43:00;;;;;;;9.40;8.60;;;14.30;99.90;;;;;;5045743;28;20135;-69
2021/05/09 06:45:30;;;;;;;9.02;8.32;;;14.40;99.90;;;;;;5052068;28;20060;-69
2021/05/09 06:47:58;;;;;;;9.18;8.38;;;14.50;99.90;;;;;;5052538;28;20102;-69
2021/05/09 06:50:27;;;;;;;8.73;8.02;;;14.60;99.90;;;;;;5050375;28;20044;-69
2021/05/09 06:52:54;;;;;;;8.50;7.70;;;14.80;99.90;;;;;;5051675;28;20053;-69
2021/05/09 06:55:21;;;;;;;9.40;8.68;;;14.90;99.90;;;;;;5049367;28;20129;-69
2021/05/09 06:57:48;;;;;;;9.13;8.32;;;15.00;99.90;;;;;;5047938;28;20056;-69
2021/05/09 07:00:17;;;;;;;11.68;8.20;;;15.10;99.90;;;;;;5049144;28;20067;-69
2021/05/09 07:02:46;;;;;;;9.45;8.65;;;15.30;99.90;;;;;;5048035;28;20044;-69
2021/05/09 07:05:14;;;;;;;8.70;8.00;;;15.30;99.90;;;;;;5052025;28;20048;-69
2021/05/09 07:07:55;;;;;;;8.40;7.80;;;15.50;99.90;;;;;;5051269;28;20541;-69
2021/05/09 07:10:24;;;;;;;8.90;8.20;;;15.50;99.90;;;;;;5051772;28;20045;-69
2021/05/09 07:12:52;;;;;;;10.15;9.10;;;15.70;99.90;;;;;;5048989;28;20048;-69
2021/05/09 07:15:28;;;;;;;8.75;8.05;;;15.70;99.90;;;;;;5048431;28;20045;-69
2021/05/09 07:18:05;;;;;;;8.85;7.53;;;15.80;99.90;;;;;;5050322;28;20106;-69
2021/05/09 07:20:34;;;;;;;8.98;8.18;;;16.00;99.90;;;;;;5046386;28;20046;-69
2021/05/09 07:23:04;;;;;;;9.63;8.82;;;16.10;99.90;;;;;;5049932;28;20045;-69
2021/05/09 07:25:32;;;;;;;8.32;7.72;;;16.20;99.90;;;;;;5047416;28;20056;-69
2021/05/09 07:28:14;;;;;;;8.27;7.68;;;16.30;99.90;;;;;;5050236;28;20094;-69
2021/05/09 07:30:43;;;;;;;8.50;7.80;;;16.40;99.90;;;;;;5051106;28;20565;-69
2021/05/09 07:33:14;;;;;;;8.48;7.78;;;16.60;99.90;;;;;;5049386;28;20472;-69
2021/05/09 07:35:43;;;;;;;8.45;7.75;;;16.70;99.90;;;;;;5050989;28;20051;-68
2021/05/09 07:38:12;;;;;;;8.30;7.60;;;16.90;99.90;;;;;;5048625;28;20044;-69
2021/05/09 07:40:39;;;;;;;8.68;8.07;;;17.00;99.90;;;;;;5050524;28;20045;-69
2021/05/09 07:43:15;;;;;;;8.52;7.82;;;17.10;99.90;;;;;;5049901;28;20453;-68
2021/05/09 07:45:44;;;;;;;8.70;7.90;;;17.20;99.90;;;;;;5048268;28;20047;-69
2021/05/09 07:48:11;;;;;;;8.88;8.18;;;17.40;99.90;;;;;;5050201;28;20048;-70
2021/05/09 07:50:40;;;;;;;9.20;8.50;;;17.50;99.90;;;;;;5050721;28;20057;-69
2021/05/09 07:53:08;;;;;;;9.20;8.50;;;17.60;99.90;;;;;;5050619;28;20466;-69
2021/05/09 07:55:35;;;;;;;9.25;8.48;;;17.70;99.90;;;;;;5032654;28;20118;-69
2021/05/09 07:58:14;;;;;;;8.35;7.75;;;17.80;99.90;;;;;;5032676;28;20037;-70
2021/05/09 08:00:41;;;;;;;8.85;8.15;;;17.90;99.90;;;;;;5045569;28;20053;-69
2021/05/09 08:03:08;;;;;;;8.43;7.82;;;18.10;99.90;;;;;;5043118;28;20376;-70
2021/05/09 08:05:35;;;;;;;8.55;7.82;;;18.20;99.90;;;;;;5047377;28;20075;-69
2021/05/09 08:08:03;;;;;;;8.10;7.40;;;18.30;99.90;;;;;;5040675;28;20040;-69
2021/05/09 08:10:36;;;;;;;8.68;8.07;;;18.40;99.90;;;;;;5045859;28;20055;-69
2021/05/09 08:13:05;;;;;;;8.35;7.65;;;18.50;99.90;;;;;;5049284;28;20101;-69
2021/05/09 08:15:32;;;;;;;8.82;8.13;;;18.60;99.90;;;;;;5051143;28;20108;-69
2021/05/09 08:17:59;;;;;;;8.50;7.90;;;18.70;99.90;;;;;;5052020;28;20052;-69
2021/05/09 08:20:28;;;;;;;8.60;7.80;;;18.80;99.90;;;;;;5049293;28;20071;-69
2021/05/09 08:22:55;;;;;;;8.90;8.18;;;19.00;99.90;;;;;;5050816;28;20053;-70
2021/05/09 08:25:22;;;;;;;8.40;7.75;;;19.10;99.90;;;;;;5051266;28;20114;-70
2021/05/09 08:27:50;;;;;;;8.85;8.15;;;19.30;99.90;;;;;;5050701;28;20049;-70
2021/05/09 08:30:19;;;;;;;8.80;8.10;;;19.40;99.90;;;;;;5039962;28;20053;-69
2021/05/09 08:32:46;;;;;;;8.30;7.70;;;19.50;99.90;;;;;;5048019;28;20049;-69
2021/05/09 08:35:14;;;;;;;8.43;7.72;;;19.70;99.90;;;;;;5050970;28;20059;-70
2021/05/09 08:37:42;;;;;;;8.85;8.00;;;19.80;99.90;;;;;;5048600;28;20045;-69
2021/05/09 08:40:14;;;;;;;8.90;8.20;;;20.00;99.90;;;;;;5049740;28;20074;-69
2021/05/09 08:42:43;;;;;;;8.88;8.15;;;20.00;99.90;;;;;;5051156;28;20045;-69
2021/05/09 08:45:11;;;;;;;8.38;7.60;;;20.20;99.90;;;;;;5051852;28;20057;-69
2021/05/09 08:47:42;;;;;;;8.07;7.40;;;20.30;99.90;;;;;;5049518;28;20045;-69
2021/05/09 08:50:18;;;;;;;8.53;7.90;;;20.40;99.90;;;;;;5032970;28;20040;-69
2021/05/09 08:52:48;;;;;;;8.20;7.60;;;20.50;99.90;;;;;;5063617;28;20114;-68
2021/05/09 08:55:22;;;;;;;7.90;7.30;;;20.70;99.90;;;;;;5051049;28;20082;-69
2021/05/09 08:57:50;;;;;;;8.70;7.80;;;20.80;99.90;;;;;;5049782;28;20494;-70
2021/05/09 09:00:17;;;;;;;8.60;8.00;;;21.00;99.90;;;;;;5048439;28;20049;-70
2021/05/09 09:02:56;;;;;;;9.88;9.05;;;21.10;99.90;;;;;;5049756;28;20148;-69
2021/05/09 09:05:40;;;;;;;11.68;10.68;;;21.30;99.90;;;;;;5049774;28;20444;-70
2021/05/09 09:08:09;;;;;;;9.98;9.18;;;21.40;99.90;;;;;;5047482;28;20405;-70
2021/05/09 09:10:52;;;;;;;9.20;8.50;;;21.50;99.90;;;;;;5048943;28;20059;-70
2021/05/09 09:13:19;;;;;;;9.40;8.60;;;21.70;99.90;;;;;;5033546;28;20037;-70
2021/05/09 09:15:51;;;;;;;8.60;7.85;;;21.90;99.90;;;;;;5050698;28;20402;-70
2021/05/09 09:18:46;;;;;;;8.10;7.50;;;22.10;99.90;;;;;;5047919;28;20099;-71
2021/05/09 09:21:25;;;;;;;8.70;8.10;;;22.30;99.50;;;;;;5046495;28;20044;-70
2021/05/09 09:23:54;;;;;;;8.73;8.02;;;22.40;99.10;;;;;;5048839;28;20041;-70
2021/05/09 09:26:32;;;;;;;8.43;7.82;;;22.60;98.40;;;;;;5050022;28;20075;-70
2021/05/09 09:29:01;;;;;;;8.13;7.43;;;22.70;97.80;;;;;;5047235;28;20041;-69
2021/05/09 09:31:42;;;;;;;8.00;7.30;;;22.80;96.40;;;;;;5050011;28;20057;-70
2021/05/09 09:34:10;;;;;;;8.38;7.70;;;22.90;95.70;;;;;;5048389;28;20049;-70
2021/05/09 09:36:38;;;;;;;9.90;9.10;;;23.10;95.40;;;;;;5048728;28;20579;-70
2021/05/09 09:39:07;;;;;;;9.07;8.38;;;23.10;94.90;;;;;;5053896;28;20411;-70
2021/05/09 09:41:34;;;;;;;8.90;8.20;;;23.10;93.80;;;;;;5052038;28;20142;-70
2021/05/09 09:44:04;;;;;;;8.60;8.00;;;23.30;93.60;;;;;;5054988;28;20045;-71
2021/05/09 09:46:36;;;;;;;8.68;8.05;;;23.40;93.70;;;;;;5053224;28;20052;-71
2021/05/09 09:49:30;;;;;;;9.07;8.18;;;23.50;93.10;;;;;;5039366;28;20120;-70
2021/05/09 09:51:59;;;;;;;9.07;8.27;;;23.60;92.50;;;;;;5052901;28;20060;-70
2021/05/09 09:54:46;;;;;;;9.57;8.85;;;23.60;92.50;;;;;;5052018;28;20850;-70
2021/05/09 09:57:22;;;;;;;8.98;8.27;;;23.60;92.10;;;;;;5053338;28;20056;-70
2021/05/09 10:00:13;;;;;;;10.05;9.10;;;23.60;92.00;;;;;;5048665;28;20052;-69
2021/05/09 10:02:45;;;;;;;9.23;8.43;;;23.90;92.00;;;;;;5041821;28;20059;-69
2021/05/09 10:05:12;;;;;;;;;;;24.10;92.00;;;;;;5053697;28;20079;-70
2021/05/09 10:07:39;;;;;;;8.10;7.60;;;24.30;91.50;;;;;;5052664;28;19925;-69
2021/05/09 10:10:06;;;;;;;8.52;7.82;;;24.50;91.30;;;;;;5034041;28;20399;-71
2021/05/09 10:12:33;;;;;;;8.68;8.02;;;24.60;90.80;;;;;;5051800;28;20064;-70
2021/05/09 10:15:02;;;;;;;8.43;7.72;;;24.60;90.30;;;;;;5052050;28;20836;-70
2021/05/09 10:17:30;;;;;;;10.63;9.70;;;24.70;90.10;;;;;;5052403;28;20053;-70
2021/05/09 10:19:58;;;;;;;9.05;8.35;;;24.90;89.00;;;;;;5053863;28;20511;-70
2021/05/09 10:22:29;;;;;;;10.00;9.07;;;25.00;89.60;;;;;;5053198;28;20060;-69
2021/05/09 10:24:59;;;;;;;9.13;8.38;;;25.20;89.70;;;;;;5053310;28;20061;-69
2021/05/09 10:27:39;;;;;;;8.85;8.18;;;25.30;88.80;;;;;;5053585;28;20045;-68
2021/05/09 10:30:08;;;;;;;9.20;8.45;;;25.50;88.10;;;;;;5049620;28;20076;-69
2021/05/09 10:32:34;;;;;;;10.05;9.25;;;25.40;87.70;;;;;;5051461;28;20573;-70
2021/05/09 10:35:06;;;;;;;8.50;7.90;;;25.50;88.90;;;;;;5048212;28;20045;-69
2021/05/09 10:40:18;;;;;;;9.35;8.35;;;25.80;87.20;;;;;;5048727;28;19998;-69
2021/05/09 10:42:47;;;;;;;8.80;8.10;;;26.00;86.70;;;;;;5050714;28;20049;-70
2021/05/09 10:45:30;;;;;;;10.93;10.02;;;26.20;85.80;;;;;;5051470;28;20498;-69
2021/05/09 10:48:22;;;;;;;11.00;10.10;;;26.30;85.30;;;;;;5051809;28;20047;-69
2021/05/09 10:50:50;;;;;;;9.98;9.07;;;26.60;84.10;;;;;;5051660;28;20052;-69
2021/05/09 10:53:35;;;;;;;9.77;8.98;;;26.70;83.20;;;;;;5052921;28;20049;-69
2021/05/09 10:56:05;;;;;;;9.65;8.80;;;26.90;82.40;;;;;;5049705;28;20063;-69
2021/05/09 10:58:48;;;;;;;8.55;7.95;;;26.90;82.20;;;;;;5051468;28;20140;-69
2021/05/09 11:01:23;;;;;;;8.50;7.90;;;26.90;81.80;;;;;;5048666;28;20454;-70
2021/05/09 11:03:52;;;;;;;10.63;9.82;;;27.00;82.00;;;;;;5050522;28;20124;-70
2021/05/09 11:06:38;;;;;;;12.38;11.35;;;27.30;80.60;;;;;;5051560;28;20072;-69
2021/05/09 11:09:12;;;;;;;8.77;8.07;;;27.50;80.60;;;;;;5049596;28;20132;-70
2021/05/09 11:11:39;;;;;;;9.10;8.40;;;27.80;78.80;;;;;;5051244;28;20052;-70
2021/05/09 11:14:09;;;;;;;9.63;8.05;;;28.00;78.30;;;;;;5050321;28;20091;-70
2021/05/09 11:16:38;;;;;;;8.60;8.00;;;28.10;78.00;;;;;;5051892;28;20558;-69
2021/05/09 11:19:13;;;;;;;8.80;7.95;;;28.40;77.20;;;;;;5048840;28;20407;-69
2021/05/09 11:21:46;;;;;;;9.23;8.35;;;28.70;76.50;;;;;;5049888;28;20045;-70
2021/05/09 11:24:24;;;;;;;9.15;8.45;;;28.60;75.40;;;;;;5046873;28;20053;-70
2021/05/09 11:26:55;;;;;;;8.70;8.00;;;29.00;74.50;;;;;;5047656;28;20633;-70
2021/05/09 11:29:27;;;;;;;8.90;8.20;;;29.20;72.40;;;;;;5049346;28;20059;-70
2021/05/09 11:32:12;;;;;;;9.10;8.27;;;29.20;70.90;;;;;;5051372;28;20056;-69
2021/05/09 11:34:48;;;;;;;8.77;8.07;;;29.40;70.70;;;;;;5027278;28;20060;-70
2021/05/09 11:37:15;;;;;;;9.00;8.30;;;29.80;71.40;;;;;;5051684;28;20109;-69
2021/05/09 11:39:42;;;;;;;9.23;8.48;;;30.10;70.10;;;;;;5047626;28;20056;-70
2021/05/09 11:42:17;;;;;;;9.77;9.07;;;30.10;69.40;;;;;;5049704;28;20110;-70
2021/05/09 11:44:56;;;;;;;12.30;11.20;;;30.30;69.20;;;;;;5048406;28;20045;-69
2021/05/09 11:47:34;;;;;;;9.60;8.90;;;30.50;68.20;;;;;;5050676;28;20095;-69
2021/05/09 11:50:09;;;;;;;8.93;8.25;;;30.60;67.00;;;;;;5049789;28;20060;-70
2021/05/09 11:52:37;;;;;;;;;;;30.60;66.10;;;;;;5048541;28;20048;-71
2021/05/09 11:55:07;;;;;;;9.00;8.15;;;30.80;65.30;;;;;;5051322;28;19932;-70
2021/05/09 11:57:34;;;;;;;8.73;8.10;;;30.80;65.10;;;;;;5048360;28;20037;-70
2021/05/09 12:00:02;;;;;;;9.40;8.70;;;30.80;64.30;;;;;;5045347;28;20423;-70
2021/05/09 12:02:35;;;;;;;8.93;8.32;;;30.70;64.30;;;;;;5047201;28;20087;-70
2021/05/09 12:05:02;;;;;;;8.27;7.72;;;30.40;64.20;;;;;;5050393;28;20041;-70
2021/05/09 12:07:50;;;;;;;8.80;8.05;;;30.80;64.10;;;;;;5049836;28;20101;-70
2021/05/09 12:10:25;;;;;;;8.63;7.90;;;31.00;63.30;;;;;;5049165;28;20056;-69
2021/05/09 12:12:55;;;;;;;8.88;8.20;;;30.40;63.20;;;;;;5047768;28;20155;-70
2021/05/09 12:15:23;;;;;;;8.93;8.27;;;30.40;63.80;;;;;;5050338;28;20049;-69
2021/05/09 12:17:56;;;;;;;9.18;8.38;;;30.50;63.70;;;;;;5046799;28;20472;-69
2021/05/09 12:20:37;;;;;;;8.90;8.20;;;31.10;63.80;;;;;;5040531;28;20056;-70
2021/05/09 12:23:28;;;;;;;8.95;8.25;;;31.40;62.80;;;;;;5044004;28;20444;-70
2021/05/09 12:25:55;;;;;;;9.30;8.50;;;31.80;62.90;;;;;;5048096;28;20041;-70
2021/05/09 12:28:30;;;;;;;8.95;8.07;;;32.20;62.40;;;;;;5047977;28;20044;-70
2021/05/09 12:31:11;;;;;;;8.95;8.35;;;32.50;61.10;;;;;;5063827;28;20588;-69
2021/05/09 12:33:38;;;;;;;8.67;8.17;;;33.10;61.10;;;;;;5047902;28;20045;-69
2021/05/09 12:36:17;;;;;;;8.50;7.97;;;32.80;59.80;;;;;;5050188;28;20063;-69
2021/05/09 12:38:44;;;;;;;8.98;8.27;;;32.60;60.40;;;;;;5042509;28;20067;-70
2021/05/09 12:41:15;;;;;;;9.18;8.52;;;32.80;60.60;;;;;;5046118;28;20080;-68
2021/05/09 12:43:44;;;;;;;9.07;8.32;;;33.10;60.00;;;;;;5029390;28;20221;-69
2021/05/09 12:46:41;;;;;;;9.00;8.20;;;33.30;59.80;;;;;;5049713;28;20053;-69
2021/05/09 12:49:17;;;;;;;8.90;8.10;;;33.70;58.80;;;;;;5048695;28;20052;-69
2021/05/09 12:52:00;;;;;;;9.00;8.40;;;33.30;59.10;;;;;;5049124;28;20132;-68
2021/05/09 12:54:48;;;;;;;8.50;7.90;;;33.20;59.60;;;;;;5065232;28;20057;-69
2021/05/09 12:57:23;;;;;;;9.18;8.38;;;33.30;59.30;;;;;;5049524;28;20048;-69
2021/05/09 12:59:52;;;;;;;8.65;7.93;;;33.30;58.90;;;;;;5047345;28;20132;-69
2021/05/09 13:02:22;;;;;;;9.43;8.60;;;33.40;59.10;;;;;;5046389;28;20499;-69
2021/05/09 13:04:59;;;;;;;9.65;8.85;;;33.40;59.20;;;;;;5046817;28;20389;-70
2021/05/09 13:07:27;;;;;;;9.70;8.55;;;33.90;59.10;;;;;;5046612;28;20037;-70